Terminal Aerodrome Forecast
Issued by NWS

Home | Current Version | Previous Version | Graphics & Text | Print | Product List | Glossary On
Versions: 1 2 3 4 5 6 7 8 9 10 11 12 13 14 15 16 17 18 19 20 21 22 23 24
000
FTUS45 KGGW 010500
TAFGDV
TAF
KGDV 010520Z 0106/0206 26009KT P6SM BKN060
     FM010900 28010KT P6SM VCSH BKN015
     FM011800 32011KT P6SM SCT024
     FM020000 VRB04KT P6SM FEW050
      AMD LTD TO CLD VIS AND WIND=

USA.gov is the U.S. government's official web portal to all federal, state and local government web resources and services.